Time;durP1;ratioP1;P1;durP2;ratioP2;P2;SDS_P1;SDS_P2;PMS_P1;PMS_P2;Temp;Humidity;BMP_temperature;BMP_pressure;BME280_temperature;BME280_humidity;BME280_pressure;Samples;Min_cycle;Max_cycle;Signal;HPM_P1;HPM_P2
2023/04/12 00:00:14;;;;;;;35.58;19.92;;;;;;;9.14;44.22;99376.56;7351923;19;20026;-67
2023/04/12 00:02:39;;;;;;;34.30;19.95;;;;;;;9.10;44.25;99379.44;7351165;19;20449;-67
2023/04/12 00:05:04;;;;;;;35.65;20.55;;;;;;;9.11;44.38;99380.28;7350785;19;20350;-67
2023/04/12 00:07:29;;;;;;;32.53;20.05;;;;;;;9.10;44.44;99378.56;7349133;19;20018;-67
2023/04/12 00:09:53;;;;;;;29.88;19.73;;;;;;;9.07;44.44;99374.31;7345797;19;20025;-67
2023/04/12 00:12:18;;;;;;;40.10;19.83;;;;;;;9.00;44.26;99378.38;7342692;19;20569;-72
2023/04/12 00:14:43;;;;;;;30.10;20.00;;;;;;;8.94;44.65;99373.47;7348721;19;20010;-66
2023/04/12 00:17:07;;;;;;;27.55;18.95;;;;;;;8.90;44.63;99382.63;7349397;19;20018;-68
2023/04/12 00:19:32;;;;;;;35.92;21.63;;;;;;;8.87;44.92;99376.66;7344223;19;20017;-67
2023/04/12 00:21:57;;;;;;;33.22;20.02;;;;;;;8.80;45.19;99380.69;7344232;19;20015;-68
2023/04/12 00:24:22;;;;;;;35.42;21.08;;;;;;;8.75;45.20;99391.63;7342449;19;20015;-69
2023/04/12 00:26:46;;;;;;;30.65;19.75;;;;;;;8.69;45.41;99379.59;7342806;19;20010;-69
2023/04/12 00:29:11;;;;;;;36.72;20.42;;;;;;;8.64;45.40;99380.88;7344203;19;20010;-66
2023/04/12 00:31:35;;;;;;;46.78;21.08;;;;;;;8.64;45.70;99383.53;7342126;19;20014;-67
2023/04/12 00:34:00;;;;;;;36.30;20.85;;;;;;;8.62;45.73;99380.13;7344303;19;20015;-72
2023/04/12 00:36:26;;;;;;;34.83;21.05;;;;;;;8.57;45.71;99388.44;7346970;19;20011;-71
2023/04/12 00:38:50;;;;;;;36.38;20.25;;;;;;;8.59;45.69;99397.13;7347553;19;20014;-68
2023/04/12 00:41:17;;;;;;;33.75;20.05;;;;;;;8.62;45.61;99396.06;7346332;19;20019;-68
2023/04/12 00:43:41;;;;;;;34.58;21.55;;;;;;;8.56;46.05;99389.38;7345872;19;20353;-69
2023/04/12 00:46:06;;;;;;;33.28;21.73;;;;;;;8.52;45.96;99392.34;7347231;19;20086;-73
2023/04/12 00:48:32;;;;;;;31.48;19.77;;;;;;;8.51;45.83;99383.50;7351582;19;20038;-75
2023/04/12 00:50:58;;;;;;;32.95;19.95;;;;;;;8.46;45.99;99382.13;7345284;19;20048;-76
2023/04/12 00:53:23;;;;;;;36.20;21.27;;;;;;;8.38;46.30;99374.66;7349332;19;20045;-76
2023/04/12 00:55:50;;;;;;;30.77;18.77;;;;;;;8.40;46.33;99385.19;7346847;19;20022;-72
2023/04/12 00:58:15;;;;;;;34.60;19.17;;;;;;;8.34;46.17;99389.97;7345636;19;20330;-78
2023/04/12 01:00:40;;;;;;;34.90;20.08;;;;;;;8.29;46.47;99384.06;7347034;19;20090;-77
2023/04/12 01:03:07;;;;;;;35.95;22.23;;;;;;;8.33;46.50;99382.09;7346094;19;20026;-71
2023/04/12 01:05:39;;;;;;;31.95;20.65;;;;;;;8.35;46.52;99380.19;7347358;19;20006;-75
2023/04/12 01:08:14;;;;;;;29.20;19.35;;;;;;;8.32;46.50;99381.25;7346370;19;20014;-75
2023/04/12 01:10:41;;;;;;;36.53;21.40;;;;;;;8.36;46.29;99384.53;7348440;19;20015;-75
2023/04/12 01:13:11;;;;;;;40.63;22.55;;;;;;;8.33;46.45;99372.31;7345427;19;20022;-76
2023/04/12 01:15:45;;;;;;;32.15;19.88;;;;;;;8.31;46.47;99370.69;7346331;19;20018;-75
2023/04/12 01:18:16;;;;;;;32.97;20.30;;;;;;;8.31;46.71;99368.91;7347232;19;20091;-76
2023/04/12 01:20:52;;;;;;;36.63;20.67;;;;;;;8.26;46.60;99370.97;7348709;19;20018;-74
2023/04/12 01:23:32;;;;;;;40.50;23.63;;;;;;;8.31;46.76;99368.91;7357179;19;20018;-75
2023/04/12 01:26:09;;;;;;;31.38;19.90;;;;;;;8.29;46.52;99368.13;7348971;19;20018;-76
2023/04/12 01:28:40;;;;;;;37.75;21.20;;;;;;;8.25;46.85;99360.44;7347833;19;20018;-76
2023/04/12 01:31:07;;;;;;;31.33;21.85;;;;;;;8.23;46.92;99357.06;7345426;19;20019;-77
2023/04/12 01:33:35;;;;;;;41.13;21.42;;;;;;;8.18;46.91;99357.38;7347286;19;20042;-77
2023/04/12 01:36:04;;;;;;;37.25;21.77;;;;;;;8.18;47.17;99357.38;7353248;19;20017;-76
2023/04/12 01:38:30;;;;;;;36.85;22.60;;;;;;;8.15;46.90;99357.56;7346262;19;20018;-76
2023/04/12 01:40:55;;;;;;;36.90;21.40;;;;;;;8.13;47.07;99356.81;7349768;19;20473;-75
2023/04/12 01:43:20;;;;;;;36.05;21.33;;;;;;;8.14;46.90;99358.50;7348493;19;20020;-76
2023/04/12 01:45:44;;;;;;;36.20;21.35;;;;;;;8.13;46.80;99354.16;7348840;19;20014;-75
2023/04/12 01:48:11;;;;;;;34.35;22.77;;;;;;;8.14;46.95;99349.69;7353612;19;20015;-71
2023/04/12 01:50:41;;;;;;;39.28;22.95;;;;;;;8.18;46.91;99357.38;7367474;19;20015;-74
2023/04/12 01:53:18;;;;;;;44.47;23.55;;;;;;;8.18;46.60;99352.06;7372314;19;20030;-74
2023/04/12 01:55:44;;;;;;;40.70;22.42;;;;;;;8.10;46.83;99348.22;7370639;19;20371;-72
2023/04/12 01:58:10;;;;;;;37.47;24.25;;;;;;;8.14;47.01;99352.34;7366814;19;20014;-73
2023/04/12 02:00:36;;;;;;;42.17;23.42;;;;;;;8.07;47.13;99338.63;7351634;19;20389;-74
2023/04/12 02:03:02;;;;;;;39.83;23.60;;;;;;;8.10;46.79;99353.53;7353495;19;20022;-72
2023/04/12 02:05:27;;;;;;;35.55;22.40;;;;;;;8.08;46.70;99348.31;7353875;19;20021;-73
2023/04/12 02:07:52;;;;;;;41.67;23.58;;;;;;;8.08;47.11;99343.00;7347175;19;20006;-73
2023/04/12 02:10:30;;;;;;;40.80;23.02;;;;;;;8.09;47.31;99349.16;7344691;19;20460;-75
2023/04/12 02:12:57;;;;;;;40.67;22.60;;;;;;;8.02;47.05;99332.75;7352170;19;20015;-78
2023/04/12 02:15:22;;;;;;;39.75;22.55;;;;;;;8.00;47.62;99342.66;7372159;19;20006;-80
2023/04/12 02:17:52;;;;;;;45.38;22.50;;;;;;;7.98;47.41;99340.09;7377081;19;20010;-79
2023/04/12 02:20:19;;;;;;;42.92;23.52;;;;;;;7.91;48.79;99328.16;7377421;19;20002;-78
2023/04/12 02:22:43;;;;;;;37.38;23.20;;;;;;;7.95;48.79;99344.75;7374648;19;20054;-75
2023/04/12 02:25:08;;;;;;;35.90;21.35;;;;;;;7.90;49.46;99339.72;7370927;19;20046;-72
2023/04/12 02:27:33;;;;;;;34.83;20.90;;;;;;;7.96;51.18;99346.44;7371545;19;20006;-74
2023/04/12 02:30:00;;;;;;;31.63;21.98;;;;;;;7.96;51.71;99349.09;7370398;19;20019;-73
2023/04/12 02:32:29;;;;;;;38.33;21.17;;;;;;;7.94;52.37;99345.69;7355083;19;20018;-74
2023/04/12 02:34:56;;;;;;;40.65;22.15;;;;;;;7.94;51.19;99343.03;7355822;19;20007;-74
2023/04/12 02:37:26;;;;;;;46.35;21.73;;;;;;;7.95;52.63;99342.94;7349521;19;20017;-73
2023/04/12 02:39:55;;;;;;;45.50;23.08;;;;;;;7.91;52.15;99348.53;7344079;19;20025;-72
2023/04/12 02:42:21;;;;;;;33.30;21.73;;;;;;;7.90;52.23;99352.19;7339099;19;20384;-72
2023/04/12 02:44:49;;;;;;;41.50;22.48;;;;;;;7.85;52.86;99344.50;7337006;19;20123;-68
2023/04/12 02:47:14;;;;;;;42.10;23.13;;;;;;;7.81;52.64;99353.59;7336837;19;20010;-67
2023/04/12 02:49:42;;;;;;;42.90;23.65;;;;;;;7.76;53.71;99346.91;7343920;19;20078;-67
2023/04/12 02:52:09;;;;;;;46.88;22.25;;;;;;;7.73;54.17;99357.72;7339080;19;20059;-68
2023/04/12 02:54:41;;;;;;;40.45;22.67;;;;;;;7.71;54.32;99351.66;7341633;19;20029;-66
2023/04/12 02:57:12;;;;;;;40.42;24.77;;;;;;;7.70;55.16;99350.78;7342129;19;20007;-64
2023/04/12 02:59:41;;;;;;;42.10;22.90;;;;;;;7.70;53.64;99350.78;7343006;19;20010;-66
2023/04/12 03:02:14;;;;;;;37.70;21.67;;;;;;;7.71;54.23;99349.84;7338440;19;20015;-66
2023/04/12 03:04:38;;;;;;;39.00;22.15;;;;;;;7.72;53.82;99348.91;7340533;19;20038;-69
2023/04/12 03:07:07;;;;;;;52.10;24.77;;;;;;;7.75;53.57;99355.81;7340381;19;20007;-63
2023/04/12 03:09:41;;;;;;;37.78;23.75;;;;;;;7.77;53.16;99352.13;7339571;19;20011;-64
2023/04/12 03:12:07;;;;;;;45.15;22.77;;;;;;;7.84;52.62;99363.16;7338734;19;20052;-64
2023/04/12 03:14:38;;;;;;;40.33;21.33;;;;;;;7.89;52.64;99351.31;7336804;19;20026;-70
2023/04/12 03:17:04;;;;;;;36.92;20.77;;;;;;;7.98;52.42;99355.19;7338241;19;20019;-67
2023/04/12 03:19:34;;;;;;;38.78;22.83;;;;;;;8.12;52.68;99363.09;7337880;19;20033;-70
2023/04/12 03:21:58;;;;;;;38.88;22.40;;;;;;;8.21;52.20;99361.63;7337530;19;20030;-69
2023/04/12 03:24:23;;;;;;;43.13;22.65;;;;;;;8.32;51.88;99354.69;7337125;19;20034;-69
2023/04/12 03:26:51;;;;;;;48.45;23.15;;;;;;;8.49;52.28;99355.34;7337285;19;20036;-70
2023/04/12 03:29:21;;;;;;;43.40;23.08;;;;;;;8.62;51.50;99364.19;7338152;19;20034;-71
2023/04/12 03:31:47;;;;;;;44.88;23.77;;;;;;;8.73;51.69;99364.31;7339675;19;20018;-73
2023/04/12 03:34:11;;;;;;;45.55;23.45;;;;;;;8.85;50.71;99363.47;7338807;19;20018;-71
2023/04/12 03:36:41;;;;;;;60.13;22.80;;;;;;;8.94;50.33;99367.28;7337971;19;20022;-72
2023/04/12 03:39:15;;;;;;;37.25;21.88;;;;;;;9.06;51.04;99367.28;7342284;19;20015;-77
2023/04/12 03:41:41;;;;;;;39.13;22.02;;;;;;;9.16;49.68;99366.66;7343412;19;20007;-79
2023/04/12 03:44:06;;;;;;;31.85;23.00;;;;;;;9.27;49.28;99364.09;7347420;19;20033;-77
2023/04/12 03:46:33;;;;;;;47.13;25.50;;;;;;;9.41;48.50;99366.63;7345783;19;20323;-73
2023/04/12 03:49:04;;;;;;;42.53;23.70;;;;;;;9.56;48.17;99365.53;7346844;19;20042;-75
2023/04/12 03:51:32;;;;;;;40.10;22.70;;;;;;;9.73;47.64;99354.50;7347238;19;20478;-74
2023/04/12 03:54:06;;;;;;;55.05;26.40;;;;;;;9.91;47.61;99370.13;7347879;19;20039;-75
2023/04/12 03:56:45;;;;;;;39.58;23.80;;;;;;;10.11;47.06;99366.84;7348686;19;20039;-73
2023/04/12 03:59:18;;;;;;;39.70;23.52;;;;;;;10.29;46.74;99365.50;7346120;19;20014;-75
2023/04/12 04:01:46;;;;;;;36.65;23.42;;;;;;;10.48;45.60;99367.66;7345971;19;20015;-74
2023/04/12 04:04:11;;;;;;;43.08;24.60;;;;;;;10.69;44.74;99363.34;7347775;19;20029;-78
2023/04/12 04:06:37;;;;;;;42.50;25.48;;;;;;;10.86;43.91;99372.72;7344429;19;20018;-74
2023/04/12 04:09:04;;;;;;;41.97;24.65;;;;;;;11.10;43.61;99368.16;7344848;19;20085;-74
2023/04/12 04:11:32;;;;;;;40.83;24.20;;;;;;;11.25;43.29;99358.97;7343793;19;20342;-76
2023/04/12 04:14:05;;;;;;;39.63;23.00;;;;;;;11.40;42.63;99366.72;7346225;19;20031;-74
2023/04/12 04:16:30;;;;;;;40.88;23.88;;;;;;;11.56;42.70;99373.38;7345747;19;20024;-74
2023/04/12 04:18:55;;;;;;;40.85;22.85;;;;;;;11.75;42.05;99366.56;7346142;19;20018;-73
2023/04/12 04:21:22;;;;;;;37.90;23.52;;;;;;;11.93;41.38;99360.63;7344900;19;20033;-74
2023/04/12 04:23:53;;;;;;;33.60;21.15;;;;;;;12.18;40.89;99369.31;7344062;19;20015;-74
2023/04/12 04:26:19;;;;;;;38.53;23.35;;;;;;;12.40;40.67;99371.91;7343926;19;20362;-74
2023/04/12 04:29:00;;;;;;;35.40;24.02;;;;;;;12.64;39.83;99374.34;7344294;19;20522;-74
2023/04/12 04:31:33;;;;;;;47.72;24.52;;;;;;;12.89;39.22;99375.75;7342134;19;20022;-73
2023/04/12 04:34:04;;;;;;;34.85;22.52;;;;;;;13.13;38.93;99367.47;7346363;19;19999;-73
2023/04/12 04:36:32;;;;;;;35.20;23.50;;;;;;;13.41;39.05;99372.16;7345279;19;20010;-75
2023/04/12 04:38:58;;;;;;;41.38;23.02;;;;;;;13.71;37.97;99365.94;7343798;19;20031;-75
2023/04/12 04:41:39;;;;;;;33.38;22.50;;;;;;;13.92;38.38;99364.00;7344737;19;20006;-75
2023/04/12 04:44:10;;;;;;;29.30;18.88;;;;;;;14.07;36.73;99365.31;7344995;19;20102;-75
2023/04/12 04:46:41;;;;;;;25.70;15.75;;;;;;;14.18;36.17;99364.34;7341737;19;20462;-77
2023/04/12 04:49:08;;;;;;;25.85;15.82;;;;;;;14.35;35.70;99365.47;7343262;19;20014;-72
2023/04/12 04:51:33;;;;;;;29.33;17.13;;;;;;;14.52;35.81;99363.00;7340774;19;20018;-73
2023/04/12 04:54:02;;;;;;;26.77;16.80;;;;;;;14.83;35.44;99371.72;7343053;19;20069;-73
2023/04/12 04:56:27;;;;;;;30.23;16.55;;;;;;;15.15;34.77;99352.56;7345592;19;20026;-74
2023/04/12 04:58:52;;;;;;;26.30;15.90;;;;;;;15.41;34.45;99365.38;7348222;19;20015;-73
2023/04/12 05:01:18;;;;;;;27.75;15.20;;;;;;;15.49;33.89;99362.78;7342522;19;20015;-73
2023/04/12 05:03:48;;;;;;;26.17;14.45;;;;;;;15.47;33.44;99365.59;7343218;19;20027;-73
2023/04/12 05:06:15;;;;;;;23.20;14.55;;;;;;;15.35;33.42;99364.09;7344687;19;20351;-76
2023/04/12 05:08:40;;;;;;;25.92;13.90;;;;;;;15.37;33.43;99356.75;7344625;19;20342;-74
2023/04/12 05:11:05;;;;;;;27.33;13.77;;;;;;;15.59;33.41;99364.47;7347483;19;20019;-74
2023/04/12 05:13:30;;;;;;;27.10;14.23;;;;;;;16.01;32.84;99372.03;7348372;19;20014;-76
2023/04/12 05:15:56;;;;;;;25.95;14.55;;;;;;;16.44;32.47;99370.47;7347274;19;20014;-75
2023/04/12 05:18:22;;;;;;;30.15;15.30;;;;;;;16.81;31.88;99370.34;7346410;19;20038;-75
2023/04/12 05:20:48;;;;;;;32.05;15.10;;;;;;;17.02;30.94;99368.16;7346130;19;20093;-77
2023/04/12 05:23:14;;;;;;;24.15;13.00;;;;;;;17.58;30.67;99369.50;7347881;19;20457;-75
2023/04/12 05:25:46;;;;;;;24.50;13.07;;;;;;;18.05;30.30;99357.25;7345811;19;20002;-74
2023/04/12 05:28:13;;;;;;;22.40;13.07;;;;;;;18.50;29.48;99354.16;7344167;19;20473;-74
2023/04/12 05:30:40;;;;;;;21.17;11.77;;;;;;;18.87;28.76;99355.53;7342259;19;20067;-74
2023/04/12 05:33:06;;;;;;;26.65;11.52;;;;;;;18.98;27.98;99357.88;7343712;19;20475;-74
2023/04/12 05:35:40;;;;;;;22.85;12.75;;;;;;;19.15;27.48;99361.41;7349333;19;20017;-74
2023/04/12 05:38:11;;;;;;;19.33;10.55;;;;;;;19.25;27.24;99353.97;7346069;19;20022;-75
2023/04/12 05:40:40;;;;;;;22.92;10.82;;;;;;;19.42;27.24;99354.75;7349709;19;20022;-73
2023/04/12 05:43:11;;;;;;;17.75;10.93;;;;;;;19.69;26.50;99353.53;7354242;19;20018;-73
2023/04/12 05:45:36;;;;;;;18.13;10.50;;;;;;;19.97;25.88;99357.50;7341375;19;20010;-75
2023/04/12 05:48:01;;;;;;;20.67;10.48;;;;;;;20.46;25.58;99358.06;7346113;19;20036;-73
2023/04/12 05:50:29;;;;;;;20.40;9.88;;;;;;;20.76;24.70;99366.31;7344144;19;20457;-74
2023/04/12 05:52:55;;;;;;;21.33;11.20;;;;;;;20.86;24.58;99370.47;7341921;19;20010;-76
2023/04/12 05:55:24;;;;;;;17.70;10.75;;;;;;;21.32;24.06;99357.72;7342195;19;20014;-76
2023/04/12 05:57:51;;;;;;;16.38;10.43;;;;;;;21.68;23.67;99362.38;7343596;19;20045;-73
2023/04/12 06:00:20;;;;;;;22.73;11.45;;;;;;;22.16;23.14;99360.94;7344433;19;20015;-72
2023/04/12 06:02:47;;;;;;;19.25;9.88;;;;;;;22.60;22.69;99366.25;7341906;19;20027;-71
2023/04/12 06:05:15;;;;;;;17.67;10.48;;;;;;;23.24;22.21;99370.84;7338946;19;20490;-73
2023/04/12 06:07:45;;;;;;;20.52;9.55;;;;;;;23.77;21.91;99367.47;7339693;19;20034;-73
2023/04/12 06:10:14;;;;;;;14.80;9.15;;;;;;;23.98;21.80;99361.06;7340556;19;20026;-72
2023/04/12 06:12:44;;;;;;;15.48;9.45;;;;;;;23.95;21.76;99358.75;7339341;19;20355;-73
2023/04/12 06:15:10;;;;;;;14.00;9.23;;;;;;;24.06;21.10;99349.16;7342684;19;20112;-72
2023/04/12 06:17:37;;;;;;;16.27;9.85;;;;;;;23.69;21.35;99353.19;7341404;19;20480;-75
2023/04/12 06:20:08;;;;;;;18.67;9.75;;;;;;;24.21;20.82;99349.84;7343053;19;20039;-75
2023/04/12 06:22:34;;;;;;;17.52;9.45;;;;;;;24.94;20.66;99357.16;7344573;19;20010;-78
2023/04/12 06:25:02;;;;;;;18.48;9.27;;;;;;;25.45;20.05;99358.41;7343716;19;20042;-78
2023/04/12 06:27:28;;;;;;;14.82;8.98;;;;;;;26.13;20.09;99337.03;7343819;19;20017;-75
2023/04/12 06:29:55;;;;;;;14.00;8.75;;;;;;;26.66;19.66;99343.06;7343009;19;20011;-73
2023/04/12 06:32:22;;;;;;;11.25;8.23;;;;;;;27.06;18.79;99344.50;7343326;19;20018;-73
2023/04/12 06:34:47;;;;;;;19.60;10.40;;;;;;;27.30;18.79;99340.06;7342019;19;20476;-74
2023/04/12 06:37:13;;;;;;;12.52;9.05;;;;;;;27.82;18.42;99337.84;7344508;19;20035;-77
2023/04/12 06:39:41;;;;;;;16.45;8.95;;;;;;;28.05;18.13;99343.47;7346111;19;20011;-74
2023/04/12 06:42:10;;;;;;;14.88;9.88;;;;;;;28.22;17.80;99338.22;7342505;19;20014;-74
2023/04/12 06:44:37;;;;;;;17.33;10.52;;;;;;;28.07;17.77;99340.50;7341379;19;20019;-74
2023/04/12 06:47:02;;;;;;;13.73;9.25;;;;;;;28.51;17.97;99336.56;7339443;19;20018;-73
2023/04/12 06:49:28;;;;;;;20.90;9.98;;;;;;;28.85;17.71;99332.28;7339583;19;20011;-77
2023/04/12 06:52:03;;;;;;;18.90;9.75;;;;;;;29.36;17.65;99352.75;7341374;19;20018;-79
2023/04/12 06:54:27;;;;;;;16.33;9.68;;;;;;;29.76;17.06;99339.16;7342717;19;20021;-76
2023/04/12 06:56:52;;;;;;;12.88;9.40;;;;;;;30.57;16.43;99327.13;7342005;19;20015;-73
2023/04/12 06:59:17;;;;;;;14.25;9.70;;;;;;;30.66;16.24;99336.63;7346132;19;20006;-73
2023/04/12 07:01:41;;;;;;;19.42;10.77;;;;;;;30.52;16.25;99343.50;7347048;19;20014;-73
2023/04/12 07:04:06;;;;;;;15.25;11.13;;;;;;;29.79;16.61;99333.19;7351112;19;20018;-74
2023/04/12 07:06:34;;;;;;;15.05;11.43;;;;;;;30.66;16.45;99334.72;7347657;19;20026;-74
2023/04/12 07:08:59;;;;;;;18.23;10.73;;;;;;;31.49;16.04;99332.28;7346819;19;20069;-73
2023/04/12 07:11:24;;;;;;;14.32;10.75;;;;;;;32.14;15.89;99339.78;7350406;19;20051;-74
2023/04/12 07:13:50;;;;;;;16.95;12.35;;;;;;;32.79;14.93;99337.81;7344388;19;20676;-74
2023/04/12 07:16:16;;;;;;;18.20;13.85;;;;;;;31.89;15.02;99343.06;7343830;19;20420;-75
2023/04/12 07:18:40;;;;;;;17.23;13.05;;;;;;;31.53;15.51;99338.94;7348343;19;20023;-75
2023/04/12 07:21:05;;;;;;;20.13;13.82;;;;;;;31.83;15.54;99342.13;7346269;19;20025;-74
2023/04/12 07:23:30;;;;;;;16.85;14.23;;;;;;;32.52;15.17;99333.34;7350794;19;20025;-73
2023/04/12 07:26:00;;;;;;;19.15;12.70;;;;;;;33.56;15.10;99344.78;7347760;19;20010;-74
2023/04/12 07:28:26;;;;;;;13.68;11.50;;;;;;;34.30;14.23;99330.03;7347857;19;20015;-73
2023/04/12 07:30:51;;;;;;;19.13;12.82;;;;;;;33.90;13.68;99334.25;7344216;19;20027;-74
2023/04/12 07:33:15;;;;;;;19.05;12.23;;;;;;;34.67;13.83;99327.88;7347338;19;20082;-72
2023/04/12 07:35:40;;;;;;;17.63;12.73;;;;;;;35.27;13.57;99338.22;7348669;19;20011;-71
2023/04/12 07:38:05;;;;;;;18.42;15.85;;;;;;;34.68;13.36;99329.53;7346317;19;20022;-71
2023/04/12 07:40:30;;;;;;;32.22;16.95;;;;;;;35.08;13.60;99339.03;7347035;19;20019;-71
2023/04/12 07:42:55;;;;;;;21.33;15.48;;;;;;;35.24;13.22;99333.19;7346594;19;20477;-72
2023/04/12 07:45:20;;;;;;;20.60;14.55;;;;;;;35.16;13.75;99331.00;7346367;19;20022;-70
2023/04/12 07:47:46;;;;;;;17.30;13.63;;;;;;;34.05;13.66;99327.94;7345205;19;20031;-72
2023/04/12 07:50:13;;;;;;;16.58;13.40;;;;;;;34.69;13.73;99322.91;7345244;19;20694;-73
2023/04/12 07:52:38;;;;;;;18.98;13.70;;;;;;;35.50;13.54;99333.19;7343833;19;20622;-74
2023/04/12 07:55:02;;;;;;;18.23;14.98;;;;;;;36.35;12.96;99323.78;7346415;19;20096;-73
2023/04/12 07:57:28;;;;;;;20.27;15.23;;;;;;;36.65;12.62;99333.91;7345273;19;20465;-73
2023/04/12 07:59:53;;;;;;;21.70;16.08;;;;;;;36.20;12.55;99314.69;7345806;19;20011;-74
2023/04/12 08:02:23;;;;;;;18.70;14.80;;;;;;;35.96;12.60;99308.97;7346157;19;20010;-73
2023/04/12 08:04:48;;;;;;;18.92;16.92;;;;;;;35.92;12.80;99310.63;7346362;19;20046;-73
2023/04/12 08:07:12;;;;;;;28.48;15.65;;;;;;;35.29;13.00;99319.38;7346032;19;20042;-74
2023/04/12 08:09:38;;;;;;;17.95;15.20;;;;;;;35.38;12.96;99313.25;7345962;19;20078;-73
2023/04/12 08:12:03;;;;;;;15.73;13.77;;;;;;;35.93;12.81;99309.53;7343850;19;20014;-76
2023/04/12 08:14:29;;;;;;;17.98;14.02;;;;;;;36.71;12.14;99310.53;7349411;19;20548;-73
2023/04/12 08:16:54;;;;;;;16.80;14.02;;;;;;;36.78;12.21;99310.22;7346098;19;20022;-73
2023/04/12 08:19:20;;;;;;;18.13;13.35;;;;;;;36.17;11.93;99318.03;7346570;19;20017;-71
2023/04/12 08:21:48;;;;;;;22.20;13.63;;;;;;;34.74;12.56;99311.00;7344052;19;20416;-75
2023/04/12 08:24:13;;;;;;;14.73;13.25;;;;;;;33.66;13.23;99308.09;7344957;19;20123;-75
2023/04/12 08:26:39;;;;;;;15.70;12.63;;;;;;;32.79;13.47;99292.78;7343842;19;20022;-76
2023/04/12 08:29:03;;;;;;;17.08;11.77;;;;;;;32.25;14.05;99291.97;7343696;19;20326;-76
2023/04/12 08:31:28;;;;;;;17.90;11.93;;;;;;;32.05;13.96;99287.00;7347041;19;20350;-73
2023/04/12 08:33:55;;;;;;;13.25;11.40;;;;;;;31.91;14.31;99291.25;7345745;19;20082;-74
2023/04/12 08:36:20;;;;;;;14.73;10.98;;;;;;;32.78;14.12;99296.66;7344694;19;20021;-76
2023/04/12 08:38:45;;;;;;;15.65;11.65;;;;;;;32.71;13.79;99294.13;7349623;19;20325;-75
2023/04/12 08:41:12;;;;;;;18.33;10.98;;;;;;;33.26;13.82;99292.94;7346290;19;20022;-74
2023/04/12 08:43:42;;;;;;;15.55;12.43;;;;;;;33.78;13.49;99295.75;7343475;19;20063;-76
2023/04/12 08:46:06;;;;;;;19.85;13.70;;;;;;;35.10;13.27;99286.94;7343470;19;20470;-75
2023/04/12 08:48:31;;;;;;;20.48;12.82;;;;;;;36.59;12.96;99279.47;7349987;19;20018;-76
2023/04/12 08:50:56;;;;;;;14.77;12.55;;;;;;;37.54;11.93;99292.88;7356132;19;20414;-71
2023/04/12 08:53:27;;;;;;;13.88;12.38;;;;;;;37.70;12.02;99299.13;7359669;19;20054;-76
2023/04/12 08:55:52;;;;;;;16.73;12.85;;;;;;;36.67;11.82;99280.84;7360677;19;20034;-75
2023/04/12 08:58:17;;;;;;;15.65;12.73;;;;;;;36.62;12.06;99283.63;7349698;19;20015;-75
2023/04/12 09:00:44;;;;;;;16.85;12.80;;;;;;;36.54;12.03;99292.59;7345610;19;20007;-78
2023/04/12 09:03:11;;;;;;;15.82;12.07;;;;;;;36.45;12.06;99269.34;7350256;19;20026;-75
2023/04/12 09:05:36;;;;;;;11.95;10.75;;;;;;;36.21;11.47;99277.50;7345609;19;20074;-74
2023/04/12 09:08:01;;;;;;;13.68;9.75;;;;;;;34.93;12.43;99271.44;7343908;19;20051;-76
2023/04/12 09:10:44;;;;;;;12.65;10.27;;;;;;;35.53;12.63;99272.47;7342435;19;20061;-75
2023/04/12 09:13:10;;;;;;;;;;;;;;;36.38;11.83;99269.63;7345290;19;20010;-73
2023/04/12 09:15:35;;;;;;;14.25;10.65;;;;;;;34.27;12.27;99264.97;7343366;19;19942;-75
2023/04/12 09:18:08;;;;;;;14.50;10.27;;;;;;;33.47;12.92;99272.59;7343621;19;20022;-76
2023/04/12 09:20:33;;;;;;;13.90;10.85;;;;;;;32.25;13.49;99258.84;7345806;19;20038;-77
2023/04/12 09:22:59;;;;;;;14.38;9.98;;;;;;;32.10;13.83;99249.28;7342191;19;20021;-73
2023/04/12 09:25:44;;;;;;;13.75;10.63;;;;;;;33.79;13.49;99257.84;7343340;19;20018;-74
2023/04/12 09:28:21;;;;;;;10.88;9.40;;;;;;;34.35;12.81;99255.28;7341370;19;20023;-75
2023/04/12 09:30:50;;;;;;;13.40;10.48;;;;;;;32.65;13.48;99258.41;7347112;19;20014;-75
2023/04/12 09:33:15;;;;;;;10.20;9.10;;;;;;;31.86;14.06;99233.28;7347757;19;20010;-75
2023/04/12 09:35:41;;;;;;;13.90;10.10;;;;;;;31.10;14.71;99232.25;7345476;19;20021;-75
2023/04/12 09:38:10;;;;;;;14.30;10.30;;;;;;;31.58;14.57;99239.81;7345282;19;20078;-75
2023/04/12 09:40:38;;;;;;;13.52;9.18;;;;;;;32.40;13.83;99245.19;7345473;19;20465;-73
2023/04/12 09:43:07;;;;;;;12.05;9.75;;;;;;;32.65;13.46;99239.91;7343385;19;20830;-77
2023/04/12 09:45:35;;;;;;;13.55;9.07;;;;;;;32.66;13.59;99230.53;7345528;19;20485;-74
2023/04/12 09:47:59;;;;;;;13.50;10.48;;;;;;;33.10;13.58;99233.09;7342571;19;20088;-77
2023/04/12 09:50:27;;;;;;;17.05;9.82;;;;;;;33.93;13.57;99231.38;7342198;19;20477;-75
2023/04/12 09:53:12;;;;;;;12.82;10.00;;;;;;;35.23;13.06;99233.69;7338909;19;20002;-74
2023/04/12 09:55:39;;;;;;;12.40;10.30;;;;;;;35.05;12.52;99221.28;7341336;19;20015;-77
2023/04/12 09:58:05;;;;;;;13.13;10.88;;;;;;;35.58;12.49;99225.31;7343314;19;20010;-78
2023/04/12 10:00:33;;;;;;;17.77;10.55;;;;;;;35.64;12.24;99226.13;7343129;19;20002;-76
2023/04/12 10:03:00;;;;;;;13.63;10.20;;;;;;;36.20;12.28;99221.16;7343579;19;20025;-77
2023/04/12 10:05:24;;;;;;;14.88;10.98;;;;;;;36.02;11.89;99216.25;7343483;19;20026;-77
2023/04/12 10:07:51;;;;;;;13.95;11.00;;;;;;;35.56;12.16;99218.38;7342885;19;20033;-77
2023/04/12 10:10:18;;;;;;;16.73;10.13;;;;;;;34.64;12.89;99203.84;7342277;19;20006;-76
2023/04/12 10:12:45;;;;;;;13.88;10.40;;;;;;;34.18;12.99;99214.00;7340057;19;20078;-76
2023/04/12 10:15:14;;;;;;;13.20;10.15;;;;;;;32.61;13.42;99213.94;7341798;19;20045;-75
2023/04/12 10:17:52;;;;;;;15.18;10.35;;;;;;;30.92;14.50;99217.66;7342957;19;20014;-74
2023/04/12 10:20:18;;;;;;;11.25;9.85;;;;;;;27.48;16.39;99208.66;7339942;19;20027;-72
2023/04/12 10:22:47;;;;;;;12.57;10.57;;;;;;;25.53;17.80;99216.25;7343408;19;20022;-76
2023/04/12 10:25:18;;;;;;;11.77;9.93;;;;;;;24.41;18.65;99200.06;7340627;19;20025;-74
2023/04/12 10:27:45;;;;;;;13.13;9.27;;;;;;;23.52;19.15;99203.81;7341260;19;20081;-75
2023/04/12 10:30:28;;;;;;;12.68;9.23;;;;;;;22.79;20.46;99209.91;7342034;19;20010;-73
2023/04/12 10:33:09;;;;;;;13.93;9.65;;;;;;;22.40;20.05;99207.66;7338698;19;20025;-76
2023/04/12 10:36:11;;;;;;;10.85;8.57;;;;;;;22.05;20.21;99210.25;7340366;19;20330;-74
2023/04/12 10:38:47;;;;;;;14.00;9.23;;;;;;;21.21;21.13;99208.22;7343244;19;20067;-78
2023/04/12 10:41:18;;;;;;;11.10;9.20;;;;;;;20.36;22.03;99210.41;7342926;19;20450;-74
2023/04/12 10:43:45;;;;;;;18.70;10.07;;;;;;;19.93;22.54;99218.16;7342178;19;20018;-76
2023/04/12 10:46:37;;;;;;;16.08;9.90;;;;;;;19.99;22.23;99208.47;7341303;19;20011;-74
2023/04/12 10:49:13;;;;;;;21.77;10.30;;;;;;;19.31;23.80;99195.66;7341506;19;20022;-77
2023/04/12 10:51:39;;;;;;;11.90;9.25;;;;;;;19.14;23.52;99203.84;7348678;19;20465;-76
2023/04/12 10:54:15;;;;;;;17.85;9.52;;;;;;;19.20;23.61;99195.03;7349783;19;20030;-77
2023/04/12 10:56:44;;;;;;;12.73;9.10;;;;;;;19.28;23.62;99193.31;7350098;19;20006;-76
2023/04/12 10:59:15;;;;;;;15.95;9.85;;;;;;;19.20;23.72;99177.97;7347680;19;20022;-76
2023/04/12 11:02:13;;;;;;;15.98;8.65;;;;;;;19.35;23.21;99181.63;7349828;19;20019;-75
2023/04/12 11:05:07;;;;;;;14.75;9.30;;;;;;;19.27;23.36;99181.66;7337578;19;20022;-73
2023/04/12 11:08:05;;;;;;;13.70;9.65;;;;;;;19.11;23.80;99162.81;7335687;19;20022;-72
2023/04/12 11:10:45;;;;;;;14.77;9.25;;;;;;;19.46;23.44;99180.38;7335848;19;20089;-73
2023/04/12 11:13:19;;;;;;;13.68;9.18;;;;;;;18.95;24.19;99146.69;7337608;19;20021;-75
2023/04/12 11:15:44;;;;;;;13.82;8.93;;;;;;;18.75;24.37;99147.06;7335878;19;20045;-74
2023/04/12 11:18:11;;;;;;;12.68;9.57;;;;;;;18.56;25.57;99146.59;7337180;19;20014;-76
2023/04/12 11:20:39;;;;;;;20.33;9.73;;;;;;;18.45;25.41;99140.56;7338794;19;20056;-75
2023/04/12 11:23:04;;;;;;;13.30;8.50;;;;;;;18.56;24.70;99130.41;7349681;19;20011;-72
2023/04/12 11:25:33;;;;;;;14.18;10.00;;;;;;;18.37;24.73;99134.34;7350018;19;20610;-75